sensor_id;sensor_type;location;lat;lon;timestamp;pressure;altitude;pressure_sealevel;temperature;humidity
80644;BME280;70010;60.224;24.712;2024-02-26T00:01:06;101099.91;;;-3.98;64.90
80644;BME280;70010;60.224;24.712;2024-02-26T00:03:32;101104.11;;;-3.65;64.91
80644;BME280;70010;60.224;24.712;2024-02-26T00:05:57;101101.98;;;-5.07;68.55
80644;BME280;70010;60.224;24.712;2024-02-26T00:08:22;101101.02;;;-4.58;68.68
80644;BME280;70010;60.224;24.712;2024-02-26T00:10:47;101100.27;;;-2.76;63.18
80644;BME280;70010;60.224;24.712;2024-02-26T00:13:13;101100.53;;;-4.21;67.05
80644;BME280;70010;60.224;24.712;2024-02-26T00:15:38;101097.84;;;-4.51;67.24
80644;BME280;70010;60.224;24.712;2024-02-26T00:18:04;101098.49;;;-4.34;66.73
80644;BME280;70010;60.224;24.712;2024-02-26T00:20:29;101099.51;;;-4.45;67.00
80644;BME280;70010;60.224;24.712;2024-02-26T00:22:55;101100.40;;;-4.85;67.74
80644;BME280;70010;60.224;24.712;2024-02-26T00:25:21;101098.04;;;-5.03;68.21
80644;BME280;70010;60.224;24.712;2024-02-26T00:27:46;101085.99;;;-2.01;61.85
80644;BME280;70010;60.224;24.712;2024-02-26T00:30:12;101082.03;;;-4.05;65.53
80644;BME280;70010;60.224;24.712;2024-02-26T00:32:37;101081.72;;;-2.76;62.16
80644;BME280;70010;60.224;24.712;2024-02-26T00:35:03;101073.18;;;-1.63;59.62
80644;BME280;70010;60.224;24.712;2024-02-26T00:37:29;101079.27;;;-2.82;59.68
80644;BME280;70010;60.224;24.712;2024-02-26T00:39:54;101080.63;;;-3.30;62.43
80644;BME280;70010;60.224;24.712;2024-02-26T00:42:20;101082.10;;;-2.93;62.09
80644;BME280;70010;60.224;24.712;2024-02-26T00:44:45;101079.46;;;-3.84;64.33
80644;BME280;70010;60.224;24.712;2024-02-26T00:47:11;101079.50;;;-4.31;65.57
80644;BME280;70010;60.224;24.712;2024-02-26T00:49:37;101083.25;;;-4.73;67.06
80644;BME280;70010;60.224;24.712;2024-02-26T00:52:03;101083.28;;;-4.78;67.02
80644;BME280;70010;60.224;24.712;2024-02-26T00:54:28;101082.09;;;-3.37;64.92
80644;BME280;70010;60.224;24.712;2024-02-26T00:56:54;101080.25;;;-4.56;67.36
80644;BME280;70010;60.224;24.712;2024-02-26T00:59:19;101079.32;;;-4.96;68.16
80644;BME280;70010;60.224;24.712;2024-02-26T01:01:45;101077.87;;;-4.89;68.02
80644;BME280;70010;60.224;24.712;2024-02-26T01:04:10;101071.67;;;-4.17;66.07
80644;BME280;70010;60.224;24.712;2024-02-26T01:06:35;101070.72;;;-4.61;66.89
80644;BME280;70010;60.224;24.712;2024-02-26T01:09:01;101067.39;;;-4.80;67.73
80644;BME280;70010;60.224;24.712;2024-02-26T01:11:27;101064.57;;;-4.71;67.70
80644;BME280;70010;60.224;24.712;2024-02-26T01:13:53;101063.70;;;-4.83;67.93
80644;BME280;70010;60.224;24.712;2024-02-26T01:16:19;101058.10;;;-4.56;67.90
80644;BME280;70010;60.224;24.712;2024-02-26T01:18:44;101051.85;;;-4.44;67.17
80644;BME280;70010;60.224;24.712;2024-02-26T01:21:09;101052.65;;;-4.79;67.47
80644;BME280;70010;60.224;24.712;2024-02-26T01:23:35;101049.06;;;-4.67;67.55
80644;BME280;70010;60.224;24.712;2024-02-26T01:26:01;101049.08;;;-4.84;67.93
80644;BME280;70010;60.224;24.712;2024-02-26T01:28:26;101051.42;;;-4.89;68.05
80644;BME280;70010;60.224;24.712;2024-02-26T01:30:51;101050.01;;;-5.03;68.69
80644;BME280;70010;60.224;24.712;2024-02-26T01:33:17;101049.59;;;-5.01;68.43
80644;BME280;70010;60.224;24.712;2024-02-26T01:35:42;101044.16;;;-5.20;69.03
80644;BME280;70010;60.224;24.712;2024-02-26T01:38:08;101041.95;;;-4.59;67.68
80644;BME280;70010;60.224;24.712;2024-02-26T01:40:33;101044.63;;;-4.21;65.41
80644;BME280;70010;60.224;24.712;2024-02-26T01:43:00;101033.92;;;-4.55;67.23
80644;BME280;70010;60.224;24.712;2024-02-26T01:45:25;101036.82;;;-4.61;67.47
80644;BME280;70010;60.224;24.712;2024-02-26T01:47:51;101039.17;;;-5.08;68.68
80644;BME280;70010;60.224;24.712;2024-02-26T01:50:15;101037.25;;;-4.70;67.24
80644;BME280;70010;60.224;24.712;2024-02-26T01:52:40;101038.34;;;-4.55;67.70
80644;BME280;70010;60.224;24.712;2024-02-26T01:55:08;101045.69;;;-4.83;68.27
80644;BME280;70010;60.224;24.712;2024-02-26T01:57:31;101043.57;;;-4.76;68.89
80644;BME280;70010;60.224;24.712;2024-02-26T01:59:57;101039.85;;;-4.77;67.99
80644;BME280;70010;60.224;24.712;2024-02-26T02:02:22;101040.94;;;-5.18;69.13
80644;BME280;70010;60.224;24.712;2024-02-26T02:04:48;101039.52;;;-4.92;68.59
80644;BME280;70010;60.224;24.712;2024-02-26T02:07:13;101037.07;;;-4.88;68.39
80644;BME280;70010;60.224;24.712;2024-02-26T02:09:38;101032.55;;;-5.00;69.50
80644;BME280;70010;60.224;24.712;2024-02-26T02:12:04;101038.44;;;-3.79;66.29
80644;BME280;70010;60.224;24.712;2024-02-26T02:14:29;101042.11;;;-3.50;64.76
80644;BME280;70010;60.224;24.712;2024-02-26T02:16:54;101045.44;;;-4.30;66.44
80644;BME280;70010;60.224;24.712;2024-02-26T02:19:20;101038.74;;;-3.84;66.34
80644;BME280;70010;60.224;24.712;2024-02-26T02:21:45;101033.40;;;-2.82;64.87
80644;BME280;70010;60.224;24.712;2024-02-26T02:24:11;101033.24;;;-3.09;64.07
80644;BME280;70010;60.224;24.712;2024-02-26T02:26:37;101032.50;;;-4.46;66.62
80644;BME280;70010;60.224;24.712;2024-02-26T02:29:03;101036.18;;;-4.51;65.96
80644;BME280;70010;60.224;24.712;2024-02-26T02:31:27;101032.43;;;-5.04;68.37
80644;BME280;70010;60.224;24.712;2024-02-26T02:33:53;101029.63;;;-4.71;67.27
80644;BME280;70010;60.224;24.712;2024-02-26T02:36:18;101031.96;;;-5.02;68.43
80644;BME280;70010;60.224;24.712;2024-02-26T02:38:49;101034.76;;;-4.96;69.10
80644;BME280;70010;60.224;24.712;2024-02-26T02:41:09;101031.25;;;-5.28;68.86
80644;BME280;70010;60.224;24.712;2024-02-26T02:43:34;101034.81;;;-4.86;67.93
80644;BME280;70010;60.224;24.712;2024-02-26T02:46:00;101034.40;;;-4.70;68.25
80644;BME280;70010;60.224;24.712;2024-02-26T02:48:25;101037.20;;;-4.94;68.72
80644;BME280;70010;60.224;24.712;2024-02-26T02:50:51;101036.15;;;-5.22;69.68
80644;BME280;70010;60.224;24.712;2024-02-26T02:53:16;101033.19;;;-5.06;68.31
80644;BME280;70010;60.224;24.712;2024-02-26T02:55:42;101030.38;;;-4.65;67.25
80644;BME280;70010;60.224;24.712;2024-02-26T02:58:07;101033.34;;;-4.82;67.90
80644;BME280;70010;60.224;24.712;2024-02-26T03:00:33;101035.69;;;-5.04;68.04
80644;BME280;70010;60.224;24.712;2024-02-26T03:02:58;101039.63;;;-4.97;68.01
80644;BME280;70010;60.224;24.712;2024-02-26T03:05:23;101039.67;;;-4.16;65.53
80644;BME280;70010;60.224;24.712;2024-02-26T03:07:49;101042.79;;;-4.17;65.76
80644;BME280;70010;60.224;24.712;2024-02-26T03:10:14;101045.88;;;-4.33;65.96
80644;BME280;70010;60.224;24.712;2024-02-26T03:12:39;101045.04;;;-4.77;67.12
80644;BME280;70010;60.224;24.712;2024-02-26T03:15:06;101047.33;;;-3.84;65.98
80644;BME280;70010;60.224;24.712;2024-02-26T03:17:30;101048.14;;;-5.01;67.78
80644;BME280;70010;60.224;24.712;2024-02-26T03:19:55;101047.01;;;-4.04;65.63
80644;BME280;70010;60.224;24.712;2024-02-26T03:22:21;101045.64;;;-3.93;64.14
80644;BME280;70010;60.224;24.712;2024-02-26T03:24:46;101047.95;;;-4.31;66.53
80644;BME280;70010;60.224;24.712;2024-02-26T03:27:12;101045.92;;;-4.65;67.45
80644;BME280;70010;60.224;24.712;2024-02-26T03:29:38;101041.44;;;-4.63;66.68
80644;BME280;70010;60.224;24.712;2024-02-26T03:32:03;101046.25;;;-3.66;65.31
80644;BME280;70010;60.224;24.712;2024-02-26T03:34:29;101044.58;;;-4.74;67.56
80644;BME280;70010;60.224;24.712;2024-02-26T03:36:54;101041.32;;;-3.11;64.89
80644;BME280;70010;60.224;24.712;2024-02-26T03:39:19;101043.98;;;-4.42;66.65
80644;BME280;70010;60.224;24.712;2024-02-26T03:41:44;101041.45;;;-4.16;67.24
80644;BME280;70010;60.224;24.712;2024-02-26T03:44:09;101038.90;;;-4.14;67.45
80644;BME280;70010;60.224;24.712;2024-02-26T03:46:34;101038.62;;;-3.83;65.98
80644;BME280;70010;60.224;24.712;2024-02-26T03:49:00;101040.14;;;-3.44;65.64
80644;BME280;70010;60.224;24.712;2024-02-26T03:51:26;101042.81;;;-3.30;65.28
80644;BME280;70010;60.224;24.712;2024-02-26T03:53:51;101045.75;;;-2.41;63.84
80644;BME280;70010;60.224;24.712;2024-02-26T03:56:17;101050.65;;;-4.18;67.13
80644;BME280;70010;60.224;24.712;2024-02-26T03:58:42;101054.61;;;-3.23;65.74
80644;BME280;70010;60.224;24.712;2024-02-26T04:01:08;101046.28;;;-1.65;61.13
80644;BME280;70010;60.224;24.712;2024-02-26T04:03:32;101045.70;;;-1.67;60.98
80644;BME280;70010;60.224;24.712;2024-02-26T04:05:58;101050.07;;;-2.40;62.59
80644;BME280;70010;60.224;24.712;2024-02-26T04:08:23;101051.31;;;-2.14;63.68
80644;BME280;70010;60.224;24.712;2024-02-26T04:10:48;101049.69;;;-1.02;59.87
80644;BME280;70010;60.224;24.712;2024-02-26T04:13:14;101045.91;;;-0.90;59.49
80644;BME280;70010;60.224;24.712;2024-02-26T04:15:39;101039.67;;;0.02;57.39
80644;BME280;70010;60.224;24.712;2024-02-26T04:18:05;101047.21;;;-3.15;64.73
80644;BME280;70010;60.224;24.712;2024-02-26T04:20:29;101040.93;;;-1.23;61.47
80644;BME280;70010;60.224;24.712;2024-02-26T04:22:55;101035.90;;;-0.74;60.52
80644;BME280;70010;60.224;24.712;2024-02-26T04:25:21;101035.21;;;-2.42;63.17
80644;BME280;70010;60.224;24.712;2024-02-26T04:27:46;101028.94;;;-0.03;58.27
80644;BME280;70010;60.224;24.712;2024-02-26T04:30:12;101023.30;;;0.44;57.31
80644;BME280;70010;60.224;24.712;2024-02-26T04:32:37;101021.07;;;0.43;57.20
80644;BME280;70010;60.224;24.712;2024-02-26T04:35:03;101024.44;;;0.34;57.01
80644;BME280;70010;60.224;24.712;2024-02-26T04:37:27;101029.36;;;0.60;55.88
80644;BME280;70010;60.224;24.712;2024-02-26T04:39:53;101028.53;;;0.33;56.72
80644;BME280;70010;60.224;24.712;2024-02-26T04:42:18;101020.98;;;0.34;57.08
80644;BME280;70010;60.224;24.712;2024-02-26T04:44:44;101017.55;;;0.62;56.29
80644;BME280;70010;60.224;24.712;2024-02-26T04:47:10;101009.63;;;0.36;57.13
80644;BME280;70010;60.224;24.712;2024-02-26T04:49:35;101013.28;;;-1.19;60.77
80644;BME280;70010;60.224;24.712;2024-02-26T04:52:00;101006.85;;;0.41;57.69
80644;BME280;70010;60.224;24.712;2024-02-26T04:54:25;101004.59;;;0.98;56.29
80644;BME280;70010;60.224;24.712;2024-02-26T04:56:51;101000.67;;;0.46;56.70
80644;BME280;70010;60.224;24.712;2024-02-26T04:59:16;101000.58;;;0.73;56.79
80644;BME280;70010;60.224;24.712;2024-02-26T05:01:42;100997.67;;;-0.74;58.93
80644;BME280;70010;60.224;24.712;2024-02-26T05:04:07;101001.86;;;0.58;56.58
80644;BME280;70010;60.224;24.712;2024-02-26T05:06:32;101002.25;;;0.44;56.79
80644;BME280;70010;60.224;24.712;2024-02-26T05:08:58;101003.46;;;0.63;56.48
80644;BME280;70010;60.224;24.712;2024-02-26T05:11:23;101000.14;;;-0.07;58.12
80644;BME280;70010;60.224;24.712;2024-02-26T05:13:48;101006.35;;;0.11;57.57
80644;BME280;70010;60.224;24.712;2024-02-26T05:16:14;100999.16;;;-0.01;58.10
80644;BME280;70010;60.224;24.712;2024-02-26T05:18:40;101001.02;;;0.65;56.98
80644;BME280;70010;60.224;24.712;2024-02-26T05:21:05;100997.27;;;-0.17;58.47
80644;BME280;70010;60.224;24.712;2024-02-26T05:23:31;100993.38;;;-0.31;58.65
80644;BME280;70010;60.224;24.712;2024-02-26T05:25:56;100996.11;;;-0.65;60.01
80644;BME280;70010;60.224;24.712;2024-02-26T05:28:22;100997.68;;;-0.51;59.38
80644;BME280;70010;60.224;24.712;2024-02-26T05:30:47;101008.38;;;-1.09;60.84
80644;BME280;70010;60.224;24.712;2024-02-26T05:33:12;101003.65;;;1.03;56.22
80644;BME280;70010;60.224;24.712;2024-02-26T05:35:38;101005.11;;;-1.74;61.85
80644;BME280;70010;60.224;24.712;2024-02-26T05:38:03;101006.32;;;0.35;58.03
80644;BME280;70010;60.224;24.712;2024-02-26T05:40:29;101008.60;;;-0.88;58.87
80644;BME280;70010;60.224;24.712;2024-02-26T05:42:55;101011.20;;;-1.53;61.61
80644;BME280;70010;60.224;24.712;2024-02-26T05:45:20;101009.43;;;0.01;58.35
80644;BME280;70010;60.224;24.712;2024-02-26T05:47:45;101012.41;;;-0.65;59.36
80644;BME280;70010;60.224;24.712;2024-02-26T05:50:12;101015.99;;;0.57;56.77
80644;BME280;70010;60.224;24.712;2024-02-26T05:52:37;101016.76;;;-0.80;61.17
80644;BME280;70010;60.224;24.712;2024-02-26T05:55:04;101004.83;;;0.01;58.61
80644;BME280;70010;60.224;24.712;2024-02-26T05:57:29;101008.14;;;0.12;57.61
80644;BME280;70010;60.224;24.712;2024-02-26T05:59:54;101006.56;;;1.02;56.06
80644;BME280;70010;60.224;24.712;2024-02-26T06:02:20;101005.46;;;-0.17;58.06
80644;BME280;70010;60.224;24.712;2024-02-26T06:04:45;101015.61;;;0.88;55.77
80644;BME280;70010;60.224;24.712;2024-02-26T06:07:10;101018.36;;;-1.34;59.95
80644;BME280;70010;60.224;24.712;2024-02-26T06:09:36;101012.01;;;0.51;57.83
80644;BME280;70010;60.224;24.712;2024-02-26T06:12:02;101013.99;;;-0.50;59.10
80644;BME280;70010;60.224;24.712;2024-02-26T06:14:28;101016.26;;;-0.32;57.98
80644;BME280;70010;60.224;24.712;2024-02-26T06:16:53;101010.64;;;-0.18;57.43
80644;BME280;70010;60.224;24.712;2024-02-26T06:19:19;101008.88;;;0.90;55.68
80644;BME280;70010;60.224;24.712;2024-02-26T06:21:45;101009.80;;;0.62;56.54
80644;BME280;70010;60.224;24.712;2024-02-26T06:24:11;101006.89;;;-0.75;60.03
80644;BME280;70010;60.224;24.712;2024-02-26T06:26:36;101003.95;;;-1.86;63.56
80644;BME280;70010;60.224;24.712;2024-02-26T06:29:01;100997.42;;;-0.13;58.94
80644;BME280;70010;60.224;24.712;2024-02-26T06:31:27;100995.87;;;0.75;56.56
80644;BME280;70010;60.224;24.712;2024-02-26T06:33:52;100996.00;;;0.43;56.78
80644;BME280;70010;60.224;24.712;2024-02-26T06:36:18;100992.99;;;0.06;56.66
80644;BME280;70010;60.224;24.712;2024-02-26T06:38:43;100994.53;;;0.31;56.88
80644;BME280;70010;60.224;24.712;2024-02-26T06:41:09;100999.56;;;0.52;57.06
80644;BME280;70010;60.224;24.712;2024-02-26T06:43:33;100998.57;;;0.68;56.42
80644;BME280;70010;60.224;24.712;2024-02-26T06:45:59;101001.19;;;0.44;56.42
80644;BME280;70010;60.224;24.712;2024-02-26T06:48:25;101008.67;;;-1.86;61.99
80644;BME280;70010;60.224;24.712;2024-02-26T06:50:50;101004.56;;;-0.32;60.14
80644;BME280;70010;60.224;24.712;2024-02-26T06:53:16;100998.98;;;-0.50;59.78
80644;BME280;70010;60.224;24.712;2024-02-26T06:55:42;100994.23;;;0.53;56.86
80644;BME280;70010;60.224;24.712;2024-02-26T06:58:08;100991.21;;;0.89;56.28
80644;BME280;70010;60.224;24.712;2024-02-26T07:00:32;100991.97;;;0.49;57.16
80644;BME280;70010;60.224;24.712;2024-02-26T07:02:58;100995.07;;;0.61;57.49
80644;BME280;70010;60.224;24.712;2024-02-26T07:05:23;100992.86;;;0.10;58.42
80644;BME280;70010;60.224;24.712;2024-02-26T07:07:49;100992.57;;;1.33;55.75
80644;BME280;70010;60.224;24.712;2024-02-26T07:10:14;100995.16;;;1.53;55.25
80644;BME280;70010;60.224;24.712;2024-02-26T07:12:39;100993.39;;;-0.11;59.10
80644;BME280;70010;60.224;24.712;2024-02-26T07:15:06;100997.96;;;-0.80;60.62
80644;BME280;70010;60.224;24.712;2024-02-26T07:17:31;101003.72;;;-1.01;61.20
80644;BME280;70010;60.224;24.712;2024-02-26T07:19:56;101001.45;;;-2.75;65.88
80644;BME280;70010;60.224;24.712;2024-02-26T07:22:22;100992.76;;;-0.07;58.87
80644;BME280;70010;60.224;24.712;2024-02-26T07:24:48;100992.94;;;0.20;58.75
80644;BME280;70010;60.224;24.712;2024-02-26T07:27:13;100989.63;;;0.10;58.65
80644;BME280;70010;60.224;24.712;2024-02-26T07:29:39;100981.40;;;-0.23;59.10
80644;BME280;70010;60.224;24.712;2024-02-26T07:32:06;100982.52;;;-1.70;63.98
80644;BME280;70010;60.224;24.712;2024-02-26T07:34:30;100977.43;;;0.94;57.41
80644;BME280;70010;60.224;24.712;2024-02-26T07:36:56;100975.44;;;0.85;57.31
80644;BME280;70010;60.224;24.712;2024-02-26T07:39:21;100970.06;;;1.18;56.64
80644;BME280;70010;60.224;24.712;2024-02-26T07:41:47;100971.15;;;0.99;57.27
80644;BME280;70010;60.224;24.712;2024-02-26T07:44:12;100971.10;;;1.39;55.76
80644;BME280;70010;60.224;24.712;2024-02-26T07:46:38;100980.22;;;0.62;57.05
80644;BME280;70010;60.224;24.712;2024-02-26T07:49:04;100980.74;;;-0.17;58.73
80644;BME280;70010;60.224;24.712;2024-02-26T07:51:29;100975.54;;;1.03;56.12
80644;BME280;70010;60.224;24.712;2024-02-26T07:53:54;100974.71;;;0.71;57.79
80644;BME280;70010;60.224;24.712;2024-02-26T07:56:20;100972.62;;;0.76;57.34
80644;BME280;70010;60.224;24.712;2024-02-26T07:58:46;100968.79;;;1.61;56.05
80644;BME280;70010;60.224;24.712;2024-02-26T08:01:13;100966.37;;;0.54;58.61
80644;BME280;70010;60.224;24.712;2024-02-26T08:03:37;100964.84;;;1.05;57.33
80644;BME280;70010;60.224;24.712;2024-02-26T08:06:03;100961.96;;;-0.63;59.80
80644;BME280;70010;60.224;24.712;2024-02-26T08:08:28;100966.16;;;0.62;57.47
80644;BME280;70010;60.224;24.712;2024-02-26T08:10:54;100966.40;;;0.65;57.23
80644;BME280;70010;60.224;24.712;2024-02-26T08:13:20;100971.05;;;-2.03;63.80
80644;BME280;70010;60.224;24.712;2024-02-26T08:15:45;100968.91;;;-2.01;65.79
80644;BME280;70010;60.224;24.712;2024-02-26T08:18:10;100967.16;;;-1.13;62.79
80644;BME280;70010;60.224;24.712;2024-02-26T08:20:36;100963.99;;;-0.57;61.59
80644;BME280;70010;60.224;24.712;2024-02-26T08:23:00;100965.52;;;0.85;58.97
80644;BME280;70010;60.224;24.712;2024-02-26T08:25:26;100970.08;;;0.48;58.51
80644;BME280;70010;60.224;24.712;2024-02-26T08:27:51;100973.87;;;0.29;57.86
80644;BME280;70010;60.224;24.712;2024-02-26T08:30:17;100970.70;;;0.63;58.33
80644;BME280;70010;60.224;24.712;2024-02-26T08:32:41;100969.78;;;0.59;57.54
80644;BME280;70010;60.224;24.712;2024-02-26T08:35:07;100973.05;;;0.33;59.14
80644;BME280;70010;60.224;24.712;2024-02-26T08:37:33;100973.15;;;0.50;58.30
80644;BME280;70010;60.224;24.712;2024-02-26T08:39:58;100977.62;;;-0.74;61.18
80644;BME280;70010;60.224;24.712;2024-02-26T08:42:23;100974.65;;;-0.22;59.84
80644;BME280;70010;60.224;24.712;2024-02-26T08:44:49;100978.25;;;-0.56;61.38
80644;BME280;70010;60.224;24.712;2024-02-26T08:47:14;100971.86;;;-0.81;61.45
80644;BME280;70010;60.224;24.712;2024-02-26T08:49:42;100970.77;;;-0.07;59.93
80644;BME280;70010;60.224;24.712;2024-02-26T08:52:05;100969.22;;;-0.98;62.67
80644;BME280;70010;60.224;24.712;2024-02-26T08:54:30;100967.75;;;-0.99;61.98
80644;BME280;70010;60.224;24.712;2024-02-26T08:56:55;100971.45;;;-1.57;62.87
80644;BME280;70010;60.224;24.712;2024-02-26T08:59:20;100968.27;;;-0.68;61.59
80644;BME280;70010;60.224;24.712;2024-02-26T09:01:46;100969.20;;;-1.89;64.54
80644;BME280;70010;60.224;24.712;2024-02-26T09:04:11;100965.11;;;-0.04;60.46
80644;BME280;70010;60.224;24.712;2024-02-26T09:06:37;100965.19;;;-1.79;64.84
80644;BME280;70010;60.224;24.712;2024-02-26T09:09:02;100960.72;;;-1.29;64.10
80644;BME280;70010;60.224;24.712;2024-02-26T09:11:28;100957.09;;;-1.55;64.96
80644;BME280;70010;60.224;24.712;2024-02-26T09:13:53;100956.40;;;-3.13;68.74
80644;BME280;70010;60.224;24.712;2024-02-26T09:16:18;100952.95;;;-3.45;71.70
80644;BME280;70010;60.224;24.712;2024-02-26T09:18:43;100948.45;;;-2.23;68.70
80644;BME280;70010;60.224;24.712;2024-02-26T09:21:09;100945.02;;;-1.46;65.00
80644;BME280;70010;60.224;24.712;2024-02-26T09:23:34;100944.63;;;-0.97;63.10
80644;BME280;70010;60.224;24.712;2024-02-26T09:25:59;100945.67;;;-0.45;61.98
80644;BME280;70010;60.224;24.712;2024-02-26T09:28:25;100947.81;;;0.43;60.69
80644;BME280;70010;60.224;24.712;2024-02-26T09:30:50;100952.50;;;-1.96;65.11
80644;BME280;70010;60.224;24.712;2024-02-26T09:33:16;100954.46;;;-2.07;66.83
80644;BME280;70010;60.224;24.712;2024-02-26T09:35:41;100950.36;;;-1.81;65.93
80644;BME280;70010;60.224;24.712;2024-02-26T09:38:06;100949.04;;;-1.17;64.50
80644;BME280;70010;60.224;24.712;2024-02-26T09:40:32;100950.59;;;-1.54;64.79
80644;BME280;70010;60.224;24.712;2024-02-26T09:43:00;100951.32;;;-1.71;66.71
80644;BME280;70010;60.224;24.712;2024-02-26T09:45:25;100949.47;;;-2.17;67.25
80644;BME280;70010;60.224;24.712;2024-02-26T09:47:49;100950.45;;;-2.88;69.32
80644;BME280;70010;60.224;24.712;2024-02-26T09:50:14;100949.28;;;-2.13;68.09
80644;BME280;70010;60.224;24.712;2024-02-26T09:52:41;100944.12;;;-1.33;66.87
80644;BME280;70010;60.224;24.712;2024-02-26T09:55:06;100946.41;;;-1.27;65.70
80644;BME280;70010;60.224;24.712;2024-02-26T09:57:31;100941.88;;;-0.91;64.47
80644;BME280;70010;60.224;24.712;2024-02-26T09:59:59;100936.08;;;0.70;61.53
80644;BME280;70010;60.224;24.712;2024-02-26T10:02:21;100936.53;;;0.59;59.88
80644;BME280;70010;60.224;24.712;2024-02-26T10:04:47;100937.47;;;-0.01;61.79
80644;BME280;70010;60.224;24.712;2024-02-26T10:07:13;100939.17;;;-1.81;66.06
80644;BME280;70010;60.224;24.712;2024-02-26T10:09:37;100933.20;;;-1.58;65.67
80644;BME280;70010;60.224;24.712;2024-02-26T10:12:03;100933.30;;;-0.24;62.63
80644;BME280;70010;60.224;24.712;2024-02-26T10:14:28;100930.66;;;-1.84;66.25
80644;BME280;70010;60.224;24.712;2024-02-26T10:16:53;100923.78;;;-0.14;63.74
80644;BME280;70010;60.224;24.712;2024-02-26T10:19:25;100922.66;;;-0.11;61.20
80644;BME280;70010;60.224;24.712;2024-02-26T10:21:44;100918.05;;;-0.78;63.74
80644;BME280;70010;60.224;24.712;2024-02-26T10:24:14;100909.96;;;1.18;59.10
80644;BME280;70010;60.224;24.712;2024-02-26T10:26:36;100915.78;;;0.61;59.11
80644;BME280;70010;60.224;24.712;2024-02-26T10:29:01;100914.26;;;-0.64;63.59
80644;BME280;70010;60.224;24.712;2024-02-26T10:31:26;100906.46;;;0.18;60.21
80644;BME280;70010;60.224;24.712;2024-02-26T10:33:55;100903.14;;;-0.25;60.98
80644;BME280;70010;60.224;24.712;2024-02-26T10:36:17;100898.54;;;-0.48;62.29
80644;BME280;70010;60.224;24.712;2024-02-26T10:38:43;100894.04;;;0.47;60.28
80644;BME280;70010;60.224;24.712;2024-02-26T10:41:13;100886.81;;;1.61;57.70
80644;BME280;70010;60.224;24.712;2024-02-26T10:43:33;100892.00;;;-0.01;60.35
80644;BME280;70010;60.224;24.712;2024-02-26T10:45:59;100887.49;;;1.31;58.25
80644;BME280;70010;60.224;24.712;2024-02-26T10:48:25;100895.95;;;-0.18;61.15
80644;BME280;70010;60.224;24.712;2024-02-26T10:50:51;100892.12;;;-0.27;62.51
80644;BME280;70010;60.224;24.712;2024-02-26T10:53:17;100890.63;;;-0.66;62.84
80644;BME280;70010;60.224;24.712;2024-02-26T10:55:42;100886.02;;;1.02;59.20
80644;BME280;70010;60.224;24.712;2024-02-26T10:58:09;100882.58;;;2.12;56.73
80644;BME280;70010;60.224;24.712;2024-02-26T11:00:33;100884.97;;;1.16;59.59
80644;BME280;70010;60.224;24.712;2024-02-26T11:02:59;100893.98;;;-1.33;65.67
80644;BME280;70010;60.224;24.712;2024-02-26T11:05:25;100902.72;;;-2.43;68.54
80644;BME280;70010;60.224;24.712;2024-02-26T11:07:50;100907.96;;;-2.73;71.64
80644;BME280;70010;60.224;24.712;2024-02-26T11:10:15;100904.10;;;0.58;62.12
80644;BME280;70010;60.224;24.712;2024-02-26T11:12:41;100908.17;;;-0.83;64.90
80644;BME280;70010;60.224;24.712;2024-02-26T11:15:07;100910.15;;;0.38;62.24
80644;BME280;70010;60.224;24.712;2024-02-26T11:17:31;100909.42;;;-0.19;62.50
80644;BME280;70010;60.224;24.712;2024-02-26T11:19:58;100914.26;;;0.19;61.38
80644;BME280;70010;60.224;24.712;2024-02-26T11:22:22;100919.60;;;0.03;62.14
80644;BME280;70010;60.224;24.712;2024-02-26T11:24:48;100920.35;;;-0.56;64.67
80644;BME280;70010;60.224;24.712;2024-02-26T11:27:13;100919.23;;;-1.03;65.42
80644;BME280;70010;60.224;24.712;2024-02-26T11:29:41;100914.68;;;-0.73;64.01
80644;BME280;70010;60.224;24.712;2024-02-26T11:32:04;100913.26;;;0.17;60.92
80644;BME280;70010;60.224;24.712;2024-02-26T11:34:29;100911.63;;;-0.09;61.55
80644;BME280;70010;60.224;24.712;2024-02-26T11:36:54;100912.61;;;0.68;60.97
80644;BME280;70010;60.224;24.712;2024-02-26T11:39:20;100913.55;;;-0.05;61.53
80644;BME280;70010;60.224;24.712;2024-02-26T11:41:45;100915.21;;;-1.08;63.72
80644;BME280;70010;60.224;24.712;2024-02-26T11:44:11;100915.10;;;-1.41;65.89
80644;BME280;70010;60.224;24.712;2024-02-26T11:46:40;100915.93;;;-0.62;64.10
80644;BME280;70010;60.224;24.712;2024-02-26T11:49:03;100921.68;;;-1.78;67.86
80644;BME280;70010;60.224;24.712;2024-02-26T11:51:32;100926.83;;;-1.70;68.24
80644;BME280;70010;60.224;24.712;2024-02-26T11:53:54;100928.22;;;-2.14;68.49
80644;BME280;70010;60.224;24.712;2024-02-26T11:56:23;100919.72;;;-0.81;64.45
80644;BME280;70010;60.224;24.712;2024-02-26T11:58:44;100923.44;;;-1.32;66.26
80644;BME280;70010;60.224;24.712;2024-02-26T12:03:35;100914.58;;;-0.94;63.77
80644;BME280;70010;60.224;24.712;2024-02-26T12:06:01;100917.08;;;-0.68;63.36
80644;BME280;70010;60.224;24.712;2024-02-26T12:08:27;100917.16;;;-0.14;61.36
80644;BME280;70010;60.224;24.712;2024-02-26T12:10:54;100918.32;;;0.42;59.10
80644;BME280;70010;60.224;24.712;2024-02-26T12:13:17;100914.04;;;0.11;60.39
80644;BME280;70010;60.224;24.712;2024-02-26T12:15:44;100912.84;;;-0.12;60.62
80644;BME280;70010;60.224;24.712;2024-02-26T12:18:09;100913.39;;;-0.30;61.65
80644;BME280;70010;60.224;24.712;2024-02-26T12:20:34;100911.83;;;-0.43;61.68
80644;BME280;70010;60.224;24.712;2024-02-26T12:22:59;100913.64;;;-1.15;64.27
80644;BME280;70010;60.224;24.712;2024-02-26T12:25:27;100911.67;;;-0.77;63.60
80644;BME280;70010;60.224;24.712;2024-02-26T12:27:51;100906.18;;;-0.08;61.66
80644;BME280;70010;60.224;24.712;2024-02-26T12:30:16;100904.09;;;-0.13;61.41
80644;BME280;70010;60.224;24.712;2024-02-26T12:32:41;100903.30;;;0.01;60.63
80644;BME280;70010;60.224;24.712;2024-02-26T12:35:07;100901.29;;;-0.50;62.17